createdAt,value
2022-12-20T05:05:11.119Z,4.74
2022-12-20T05:07:46.393Z,4.70
2022-12-20T05:10:15.350Z,4.71
2022-12-20T05:12:43.724Z,4.60
2022-12-20T05:15:18.000Z,4.65
2022-12-20T05:17:45.467Z,4.59
2022-12-20T05:20:14.247Z,4.84
2022-12-20T05:23:03.223Z,4.61
2022-12-20T05:25:49.337Z,4.62
2022-12-20T05:28:17.419Z,4.55
2022-12-20T05:30:45.249Z,4.58
2022-12-20T05:33:13.147Z,4.76
2022-12-20T05:35:43.198Z,4.65
2022-12-20T05:38:13.242Z,4.55
2022-12-20T05:40:41.356Z,4.63
2022-12-20T05:43:10.814Z,4.71
2022-12-20T05:45:53.121Z,4.76
2022-12-20T05:48:29.962Z,4.57
2022-12-20T05:50:57.473Z,4.58
2022-12-20T05:53:32.814Z,4.84
2022-12-20T05:56:04.226Z,4.62
2022-12-20T05:58:38.317Z,4.65
2022-12-20T06:01:08.236Z,4.56
2022-12-20T06:03:38.890Z,4.50
2022-12-20T06:06:14.580Z,4.42
2022-12-20T06:08:43.243Z,4.45
2022-12-20T06:11:16.022Z,4.39
2022-12-20T06:13:51.280Z,4.37
2022-12-20T06:16:21.138Z,4.36
2022-12-20T06:18:50.015Z,4.36
2022-12-20T06:21:18.107Z,4.38
2022-12-20T06:23:45.817Z,4.38
2022-12-20T06:26:15.025Z,4.30
2022-12-20T06:28:52.566Z,4.26
2022-12-20T06:31:27.040Z,4.31
2022-12-20T06:33:55.559Z,4.38
2022-12-20T06:36:26.645Z,4.43
2022-12-20T06:38:55.967Z,4.47
2022-12-20T06:41:23.578Z,4.34
2022-12-20T06:43:53.151Z,4.40
2022-12-20T06:46:20.760Z,4.37
2022-12-20T06:48:49.063Z,4.35
2022-12-20T06:51:18.036Z,4.31
2022-12-20T06:53:45.781Z,4.29
2022-12-20T06:56:13.185Z,4.31
2022-12-20T06:58:40.442Z,4.27
2022-12-20T07:01:08.075Z,4.35
2022-12-20T07:03:35.628Z,4.34
2022-12-20T07:06:02.982Z,4.25
2022-12-20T07:08:30.505Z,4.41
2022-12-20T07:11:04.516Z,4.27
2022-12-20T07:13:31.837Z,4.36
2022-12-20T07:16:04.434Z,4.22
2022-12-20T07:18:32.649Z,4.33
2022-12-20T07:21:05.709Z,4.39
2022-12-20T07:23:33.551Z,4.44
2022-12-20T07:26:01.724Z,4.50
2022-12-20T07:28:30.070Z,4.51
2022-12-20T07:31:02.102Z,4.41
2022-12-20T07:33:29.699Z,4.55
2022-12-20T07:36:01.813Z,4.45
2022-12-20T07:38:30.669Z,4.41
2022-12-20T07:40:58.811Z,4.39
2022-12-20T07:43:26.666Z,4.32
2022-12-20T07:45:56.096Z,4.45
2022-12-20T07:48:24.571Z,4.37
2022-12-20T07:50:55.438Z,4.37
2022-12-20T07:53:26.457Z,4.31
2022-12-20T07:55:55.021Z,4.38
2022-12-20T07:58:22.787Z,4.59
2022-12-20T08:00:50.625Z,4.60
2022-12-20T08:03:23.757Z,4.69
2022-12-20T08:05:55.511Z,4.53
2022-12-20T08:08:22.969Z,4.63
2022-12-20T08:10:51.430Z,4.48
2022-12-20T08:13:19.280Z,4.71
2022-12-20T08:15:46.837Z,4.69
2022-12-20T08:18:14.146Z,4.63
2022-12-20T08:20:41.529Z,4.63
2022-12-20T08:23:08.874Z,4.59
2022-12-20T08:25:41.572Z,4.54
2022-12-20T08:28:09.608Z,4.72
2022-12-20T08:30:37.967Z,4.91
2022-12-20T08:33:05.910Z,4.75
2022-12-20T08:35:33.546Z,4.74
2022-12-20T08:38:01.355Z,4.78
2022-12-20T08:40:29.120Z,4.82
2022-12-20T08:42:56.397Z,4.89
2022-12-20T08:45:23.709Z,4.86
2022-12-20T08:47:51.478Z,4.97
2022-12-20T08:50:19.525Z,5.08
2022-12-20T08:52:47.439Z,5.01
2022-12-20T08:55:14.760Z,4.91
2022-12-20T08:57:42.433Z,4.95
2022-12-20T09:00:11.315Z,4.89
2022-12-20T09:02:38.899Z,4.80
2022-12-20T09:05:06.898Z,4.87
2022-12-20T09:07:34.688Z,4.93
2022-12-20T09:10:03.119Z,4.95
2022-12-20T09:12:30.388Z,4.84
2022-12-20T09:14:57.779Z,4.87
2022-12-20T09:17:25.200Z,4.99
2022-12-20T09:19:52.472Z,5.21
2022-12-20T09:22:19.692Z,5.10
2022-12-20T09:24:46.917Z,4.97
2022-12-20T09:27:14.182Z,5.36
2022-12-20T09:29:42.096Z,5.43
2022-12-20T09:32:09.621Z,5.38
2022-12-20T09:34:37.667Z,5.06
2022-12-20T09:37:05.977Z,5.22
2022-12-20T09:39:33.354Z,5.19
2022-12-20T09:42:01.434Z,5.37
2022-12-20T09:44:32.002Z,5.27
2022-12-20T09:47:10.062Z,5.62
2022-12-20T09:49:43.846Z,5.18
2022-12-20T09:52:36.377Z,5.24
2022-12-20T09:55:39.785Z,5.11
2022-12-20T09:58:21.425Z,5.29
2022-12-20T10:00:54.339Z,5.13
2022-12-20T10:03:36.136Z,5.21
2022-12-20T10:06:26.076Z,5.16
2022-12-20T10:09:02.167Z,5.53
2022-12-20T10:11:42.007Z,5.59
2022-12-20T10:14:43.796Z,5.67
2022-12-20T10:17:17.672Z,5.64
2022-12-20T10:20:09.245Z,5.70
2022-12-20T10:23:29.455Z,5.43
2022-12-20T10:26:00.500Z,5.61
2022-12-20T10:28:35.171Z,5.49
2022-12-20T10:31:06.644Z,5.45
2022-12-20T10:33:34.433Z,5.59
2022-12-20T10:36:28.105Z,5.64
2022-12-20T10:39:00.391Z,5.62
2022-12-20T10:41:31.001Z,5.43
2022-12-20T10:44:14.845Z,5.42
2022-12-20T10:46:46.637Z,5.29
2022-12-20T10:49:29.389Z,5.42
2022-12-20T10:52:18.291Z,5.47
2022-12-20T10:54:46.980Z,5.37
2022-12-20T10:57:26.729Z,5.41
2022-12-20T10:59:58.225Z,5.43
2022-12-20T11:02:40.121Z,5.41
2022-12-20T11:05:09.753Z,5.46
2022-12-20T11:08:24.660Z,5.31
2022-12-20T11:10:40.201Z,5.54
2022-12-20T11:13:23.415Z,5.52
2022-12-20T11:15:57.063Z,5.44
2022-12-20T11:18:38.292Z,5.28
2022-12-20T11:21:28.043Z,5.28
2022-12-20T11:24:04.904Z,5.29
2022-12-20T11:26:48.193Z,5.31
2022-12-20T11:29:34.549Z,5.28
2022-12-20T11:32:14.305Z,5.39
2022-12-20T11:34:59.747Z,5.37
2022-12-20T11:37:34.341Z,5.40
2022-12-20T11:40:32.484Z,5.66
2022-12-20T11:43:31.000Z,5.92
2022-12-20T11:46:23.019Z,5.95
2022-12-20T11:48:56.829Z,5.95
2022-12-20T11:51:28.275Z,6.21
2022-12-20T11:54:01.631Z,6.21
2022-12-20T11:56:47.327Z,6.14
2022-12-20T11:59:43.519Z,6.02
2022-12-20T12:02:14.637Z,5.86
2022-12-20T12:04:56.165Z,5.97
2022-12-20T12:07:31.012Z,5.87
2022-12-20T12:10:23.527Z,6.10
2022-12-20T12:12:59.502Z,6.04
2022-12-20T12:15:46.761Z,5.83
2022-12-20T12:18:21.194Z,5.89
2022-12-20T12:20:48.540Z,6.18
2022-12-20T12:23:15.723Z,6.40
2022-12-20T12:25:43.272Z,6.35
2022-12-20T12:28:14.129Z,6.28
2022-12-20T12:30:54.131Z,6.17
2022-12-20T12:33:45.712Z,6.31
2022-12-20T12:36:18.897Z,6.40
2022-12-20T12:39:05.362Z,6.43
2022-12-20T12:42:00.192Z,6.45
2022-12-20T12:44:43.688Z,6.23
2022-12-20T12:47:22.179Z,6.35
2022-12-20T12:49:53.895Z,6.29
2022-12-20T12:52:52.372Z,6.41
2022-12-20T12:55:38.425Z,6.35
2022-12-20T12:58:24.686Z,6.26
2022-12-20T13:00:52.326Z,6.25
2022-12-20T13:03:47.880Z,6.17
2022-12-20T13:06:25.143Z,6.45
2022-12-20T13:08:59.318Z,6.43
2022-12-20T13:11:36.267Z,6.28
2022-12-20T13:14:27.450Z,6.38
2022-12-20T13:17:24.079Z,6.53
2022-12-20T13:19:57.656Z,6.14
2022-12-20T13:22:26.685Z,6.20
2022-12-20T13:24:58.686Z,6.28
2022-12-20T13:27:27.076Z,6.19
2022-12-20T13:29:59.567Z,6.15
2022-12-20T13:32:48.779Z,6.13
2022-12-20T13:35:25.395Z,6.21
2022-12-20T13:38:02.062Z,6.25
2022-12-20T13:40:40.993Z,6.22
2022-12-20T13:43:17.947Z,6.09
2022-12-20T13:45:53.316Z,6.28
2022-12-20T13:48:31.927Z,6.21
2022-12-20T13:51:00.256Z,6.13
2022-12-20T13:53:28.443Z,6.10
2022-12-20T13:55:56.454Z,5.90
2022-12-20T13:58:36.716Z,5.79
2022-12-20T14:01:07.306Z,5.92
2022-12-20T14:03:41.912Z,5.98
2022-12-20T14:06:12.003Z,5.99
2022-12-20T14:08:47.250Z,6.04
2022-12-20T14:11:26.805Z,5.84
2022-12-20T14:14:04.688Z,5.91
2022-12-20T14:16:33.707Z,5.97
2022-12-20T14:19:03.622Z,6.04
2022-12-20T14:21:34.263Z,6.16
2022-12-20T14:24:03.173Z,6.09
2022-12-20T14:26:38.096Z,5.96
2022-12-20T14:29:16.262Z,5.87
2022-12-20T14:31:46.501Z,5.94
2022-12-20T14:34:29.796Z,5.88
2022-12-20T14:37:27.615Z,5.82
2022-12-20T14:40:00.159Z,5.77
2022-12-20T14:42:34.617Z,5.70
2022-12-20T14:45:26.843Z,5.78
2022-12-20T14:47:56.518Z,5.69
2022-12-20T14:50:33.297Z,5.73
2022-12-20T14:53:01.904Z,5.54
2022-12-20T14:55:38.964Z,5.65
2022-12-20T14:58:24.720Z,5.59
2022-12-20T15:01:01.283Z,5.74
2022-12-20T15:03:30.008Z,5.94
2022-12-20T15:05:59.925Z,5.70
2022-12-20T15:08:34.900Z,6.12
2022-12-20T15:11:03.511Z,5.99
2022-12-20T15:13:37.302Z,5.98
2022-12-20T15:16:14.468Z,5.91
2022-12-20T15:18:42.695Z,5.91
2022-12-20T15:21:15.981Z,5.94
2022-12-20T15:23:49.202Z,5.65
2022-12-20T15:26:18.629Z,5.56
2022-12-20T15:28:46.698Z,5.55
2022-12-20T15:31:17.521Z,5.56
2022-12-20T15:33:46.037Z,5.45
2022-12-20T15:36:26.491Z,5.44
2022-12-20T15:39:12.442Z,5.59
2022-12-20T15:41:49.656Z,5.73
2022-12-20T15:44:20.918Z,5.78
2022-12-20T15:46:49.040Z,5.63
2022-12-20T15:49:21.933Z,5.45
2022-12-20T15:51:51.068Z,5.65
2022-12-20T15:54:35.628Z,5.51
2022-12-20T15:57:09.241Z,5.45
2022-12-20T16:02:27.054Z,5.65
2022-12-20T16:04:55.396Z,5.68
2022-12-20T16:07:24.118Z,5.82
2022-12-20T16:09:51.692Z,5.78
2022-12-20T16:12:25.346Z,5.69
2022-12-20T16:14:53.246Z,5.86
2022-12-20T16:17:21.001Z,5.85
2022-12-20T16:19:48.445Z,5.93
2022-12-20T16:22:18.169Z,5.95
2022-12-20T16:24:46.409Z,6.09
2022-12-20T16:27:14.301Z,5.77
2022-12-20T16:29:42.110Z,5.65
2022-12-20T16:32:15.727Z,5.64
2022-12-20T16:34:43.766Z,5.64
2022-12-20T16:37:14.213Z,5.74
2022-12-20T16:39:42.874Z,5.86
2022-12-20T16:42:18.757Z,5.99
2022-12-20T16:44:51.583Z,5.76
2022-12-20T16:47:18.989Z,6.32
2022-12-20T16:49:52.361Z,6.33
2022-12-20T16:52:22.782Z,6.36
2022-12-20T16:54:51.718Z,6.03
2022-12-20T16:57:21.122Z,5.81
2022-12-20T16:59:48.439Z,5.87
2022-12-20T17:02:22.009Z,5.83
2022-12-20T17:04:49.457Z,5.90
2022-12-20T17:07:16.857Z,5.69
2022-12-20T17:09:44.257Z,5.65
2022-12-20T17:12:16.917Z,5.76
2022-12-20T17:14:44.712Z,5.81
2022-12-20T17:17:12.548Z,5.66
2022-12-20T17:19:41.360Z,6.09
2022-12-20T17:22:24.712Z,5.83
2022-12-20T17:24:52.315Z,5.86
2022-12-20T17:27:19.777Z,5.89
2022-12-20T17:29:47.208Z,5.67
2022-12-20T17:32:32.689Z,5.72
2022-12-20T17:34:59.956Z,5.84
2022-12-20T17:37:27.989Z,5.76
2022-12-20T17:39:55.357Z,5.80
2022-12-20T17:42:28.769Z,6.05
2022-12-20T17:44:58.371Z,6.18
2022-12-20T17:47:26.122Z,6.43
2022-12-20T17:49:53.850Z,6.65
2022-12-20T17:52:21.720Z,6.69
2022-12-20T17:54:49.297Z,6.32
2022-12-20T17:57:17.030Z,5.93
2022-12-20T17:59:44.673Z,5.67
2022-12-20T18:02:20.176Z,5.66
2022-12-20T18:04:48.626Z,5.59
2022-12-20T18:07:16.037Z,6.04
2022-12-20T18:09:47.078Z,6.31
2022-12-20T18:12:14.725Z,6.32
2022-12-20T18:14:42.161Z,5.89
2022-12-20T18:17:09.645Z,6.13
2022-12-20T18:19:37.047Z,5.63
2022-12-20T18:22:04.957Z,5.62
2022-12-20T18:24:32.400Z,5.62
2022-12-20T18:27:00.181Z,5.54
2022-12-20T18:29:28.461Z,6.01
2022-12-20T18:31:56.333Z,5.92
2022-12-20T18:34:23.810Z,5.70
2022-12-20T18:36:51.514Z,5.49
2022-12-20T18:39:19.497Z,5.50
2022-12-20T18:41:48.288Z,5.63
2022-12-20T18:44:16.318Z,5.47
2022-12-20T18:46:44.293Z,5.53
2022-12-20T18:49:11.809Z,5.66
2022-12-20T18:51:39.303Z,5.52
2022-12-20T18:54:10.157Z,5.84
2022-12-20T18:56:39.228Z,5.84
2022-12-20T18:59:13.052Z,5.76
2022-12-20T19:01:43.262Z,5.82
2022-12-20T19:04:11.468Z,6.09
2022-12-20T19:06:40.313Z,6.32
2022-12-20T19:09:10.910Z,5.94
2022-12-20T19:11:39.014Z,6.08
2022-12-20T19:14:07.604Z,5.86
2022-12-20T19:16:35.458Z,5.76
2022-12-20T19:19:03.622Z,5.82
2022-12-20T19:21:33.652Z,5.76
2022-12-20T19:24:05.229Z,6.04
2022-12-20T19:26:34.235Z,6.04
2022-12-20T19:29:01.622Z,5.84
2022-12-20T19:31:30.826Z,5.68
2022-12-20T19:34:02.110Z,5.63
2022-12-20T19:36:38.996Z,5.60
2022-12-20T19:39:11.916Z,5.62
2022-12-20T19:41:40.076Z,5.67
2022-12-20T19:44:08.850Z,5.56
2022-12-20T19:46:36.502Z,5.46
2022-12-20T19:49:03.996Z,5.54
2022-12-20T19:51:31.889Z,5.53
2022-12-20T19:54:00.102Z,5.95
2022-12-20T19:56:31.567Z,6.29
2022-12-20T19:59:00.124Z,6.35
2022-12-20T20:01:28.378Z,5.80
2022-12-20T20:03:58.567Z,5.62
2022-12-20T20:06:27.298Z,5.59
2022-12-20T20:08:59.422Z,5.62
2022-12-20T20:11:28.154Z,5.64
2022-12-20T20:13:56.501Z,5.68
2022-12-20T20:16:24.221Z,5.55
2022-12-20T20:18:53.006Z,5.50
2022-12-20T20:21:24.067Z,5.61
2022-12-20T20:23:54.653Z,5.56
2022-12-20T20:26:29.169Z,5.84
2022-12-20T20:28:57.058Z,5.73
2022-12-20T20:31:24.496Z,5.67
2022-12-20T20:33:54.973Z,5.53
2022-12-20T20:36:23.969Z,5.55
2022-12-20T20:38:52.249Z,5.65
2022-12-20T20:41:20.418Z,5.48
2022-12-20T20:43:48.741Z,5.49
2022-12-20T20:46:17.208Z,5.37
2022-12-20T20:48:44.917Z,5.49
2022-12-20T20:51:13.745Z,5.40
2022-12-20T20:53:43.896Z,5.42
2022-12-20T20:56:12.954Z,5.47
2022-12-20T20:58:40.726Z,5.42
2022-12-20T21:01:09.923Z,5.42
2022-12-20T21:03:38.678Z,5.35
2022-12-20T21:08:58.870Z,5.32
2022-12-20T21:11:27.805Z,5.37
2022-12-20T21:13:55.569Z,5.42
2022-12-20T21:16:24.429Z,5.56
2022-12-20T21:18:57.361Z,5.37
2022-12-20T21:21:26.246Z,5.35
2022-12-20T21:23:55.651Z,5.44
2022-12-20T21:26:25.229Z,5.74
2022-12-20T21:28:57.450Z,5.50
2022-12-20T21:31:25.193Z,5.51
2022-12-20T21:33:52.873Z,5.51
2022-12-20T21:36:20.782Z,5.59
2022-12-20T21:38:56.618Z,5.67
2022-12-20T21:41:26.583Z,5.51
2022-12-20T21:43:58.806Z,5.52
2022-12-20T21:46:28.015Z,5.48
2022-12-20T21:48:55.561Z,5.49
2022-12-20T21:51:25.064Z,5.34
2022-12-20T21:53:55.285Z,5.43
2022-12-20T21:56:26.025Z,5.42
2022-12-20T21:58:53.914Z,5.48
2022-12-20T22:01:24.861Z,5.42
2022-12-20T22:03:54.589Z,5.26
2022-12-20T22:06:21.905Z,5.33
2022-12-20T22:08:49.868Z,5.30
2022-12-20T22:11:18.645Z,5.26
2022-12-20T22:13:46.580Z,5.67
2022-12-20T22:16:17.183Z,5.42
2022-12-20T22:18:48.898Z,5.34
2022-12-20T22:21:17.616Z,5.33
2022-12-20T22:23:45.403Z,5.37
2022-12-20T22:26:16.250Z,5.23
2022-12-20T22:28:52.147Z,5.20
2022-12-20T22:31:20.824Z,5.30
2022-12-20T22:33:49.508Z,5.31
2022-12-20T22:36:17.625Z,5.34
2022-12-20T22:38:45.746Z,5.51
2022-12-20T22:41:22.272Z,5.29
2022-12-20T22:43:50.193Z,5.94
2022-12-20T22:46:18.824Z,6.15
2022-12-20T22:48:46.954Z,5.77
2022-12-20T22:51:19.195Z,5.67
2022-12-20T22:53:47.664Z,5.55
2022-12-20T22:56:18.689Z,5.43
2022-12-20T22:58:46.055Z,5.77
2022-12-20T23:01:15.315Z,5.61
2022-12-20T23:03:43.301Z,5.50
2022-12-20T23:06:14.535Z,5.77
2022-12-20T23:08:42.600Z,6.15
2022-12-20T23:11:37.197Z,6.14
2022-12-20T23:14:24.516Z,6.20
2022-12-20T23:16:51.981Z,6.18
2022-12-20T23:19:19.351Z,5.80
2022-12-20T23:22:05.223Z,6.16
2022-12-20T23:24:32.609Z,6.28
2022-12-20T23:27:00.161Z,6.12
2022-12-20T23:29:29.753Z,6.20
2022-12-20T23:31:57.077Z,5.75
2022-12-20T23:34:24.464Z,5.67
2022-12-20T23:36:52.700Z,5.79
2022-12-20T23:39:20.023Z,5.62
2022-12-20T23:41:47.356Z,5.37
2022-12-20T23:44:15.150Z,5.32
2022-12-20T23:46:42.435Z,5.45
2022-12-20T23:49:09.759Z,5.48
2022-12-20T23:51:37.077Z,5.26
2022-12-20T23:54:04.703Z,5.41
2022-12-20T23:56:32.034Z,5.36
2022-12-20T23:58:59.394Z,5.56
